PWSweather.com
Personal Weather Stations
Station Observations
SPARKSRC
St. Petersburg, FL 33716

St. Petersburg, FL 33716

Lat: 27.876101, Lon: -82.657194

Elevation: 13

Station Type: Zephyr PWS-1000TD

Latest ConditionsUpdated 11:15:01 PM EST Sunday, Jan 22, 2017
Currently Today's Max Today's Min Today's Average
Temperature 67.6°F19.8°C 86.9°F30.5°C 67.6°F19.8°C 76.7°F24.8°C
Dew Point 62.7°F17.1°C 75.0°F23.9°C 62.7°F17.1°C 69.9°F21.1°C
Winds 12.1 mph SW19.5 kmh SW 38.7 mph S62.3 kmh S - 18.7 mph 30.1 kmh
Wind Gusts 21.3 mph34.3 kmh 55.5 mph89.3 kmh - -
Humidity 84% 88% 66% 80%
Pressure 29.45 in997.3 mb 29.71 in1006.1 mb 29.39 in995.3 mb -
Hour Temp Dew Point Humidity Winds Wind Gusts Pressure Precip Precip Rate Daily Precip Total
11:15 PM 67.6°F19.8°C 62.7°F17.1°C 84% 12.1 mph SW19.5 kmh SW 21.3 mph34.3 kmh 29.45 in997.3 mb 0.00 in0.0 mm 0.00 in0.0 mm 0.00 in0.0 mm
11:10 PM 67.6°F19.8°C 62.7°F17.1°C 84% 15.2 mph SW24.5 kmh SW 21.3 mph34.3 kmh 29.45 in997.3 mb 0.00 in0.0 mm 0.00 in0.0 mm 0.00 in0.0 mm
11:05 PM 67.6°F19.8°C 62.7°F17.1°C 84% 13.6 mph SW21.9 kmh SW 20.6 mph33.2 kmh 29.45 in997.3 mb 0.00 in0.0 mm 0.00 in0.0 mm 0.00 in0.0 mm
11:00 PM 67.6°F19.8°C 62.7°F17.1°C 84% 11.4 mph SW18.3 kmh SW 19.7 mph31.7 kmh 29.45 in997.3 mb 0.00 in0.0 mm 0.00 in0.0 mm 0.00 in0.0 mm
10:55 PM 67.8°F19.9°C 62.8°F17.1°C 84% 12.1 mph SW19.5 kmh SW 16.8 mph27.0 kmh 29.45 in997.3 mb 0.00 in0.0 mm 0.00 in0.0 mm 0.00 in0.0 mm
10:50 PM 68.0°F20.0°C 63.0°F17.2°C 84% 9.8 mph SW15.8 kmh SW 17.4 mph28.0 kmh 29.45 in997.3 mb 0.00 in0.0 mm 0.00 in0.0 mm 0.00 in0.0 mm
10:45 PM 68.4°F20.2°C 63.4°F17.4°C 84% 11.4 mph SW18.3 kmh SW 17.4 mph28.0 kmh 29.44 in997.0 mb 0.00 in0.0 mm 0.00 in0.0 mm 0.00 in0.0 mm
10:40 PM 68.5°F20.3°C 63.5°F17.5°C 84% 8.3 mph SW13.4 kmh SW 13.6 mph21.9 kmh 29.44 in997.0 mb 0.00 in0.0 mm 0.00 in0.0 mm 0.00 in0.0 mm
10:35 PM 68.7°F20.4°C 63.7°F17.6°C 84% 7.6 mph SW12.2 kmh SW 11.4 mph18.3 kmh 29.45 in997.3 mb 0.00 in0.0 mm 0.00 in0.0 mm 0.00 in0.0 mm
10:30 PM 68.9°F20.5°C 63.9°F17.7°C 84% 8.3 mph SW13.4 kmh SW 11.4 mph18.3 kmh 29.45 in997.3 mb 0.00 in0.0 mm 0.00 in0.0 mm 0.00 in0.0 mm
10:25 PM 68.9°F20.5°C 63.9°F17.7°C 84% 9.2 mph SW14.8 kmh SW 11.4 mph18.3 kmh 29.45 in997.3 mb 0.00 in0.0 mm 0.00 in0.0 mm 0.00 in0.0 mm
10:20 PM 69.1°F20.6°C 64.1°F17.8°C 84% 6.9 mph SW11.1 kmh SW 8.3 mph13.4 kmh 29.45 in997.3 mb 0.00 in0.0 mm 0.00 in0.0 mm 0.00 in0.0 mm
10:15 PM 69.3°F20.7°C 64.2°F17.9°C 84% 3.8 mph SW6.1 kmh SW 6.0 mph9.7 kmh 29.45 in997.3 mb 0.00 in0.0 mm 0.00 in0.0 mm 0.00 in0.0 mm
10:10 PM 69.4°F20.8°C 64.4°F18.0°C 84% 3.8 mph SW6.1 kmh SW 6.0 mph9.7 kmh 29.45 in997.3 mb 0.00 in0.0 mm 0.00 in0.0 mm 0.00 in0.0 mm
10:05 PM 69.4°F20.8°C 64.4°F18.0°C 84% 3.8 mph SW6.1 kmh SW 6.9 mph11.1 kmh 29.46 in997.6 mb 0.00 in0.0 mm 0.00 in0.0 mm 0.00 in0.0 mm
10:00 PM 69.6°F20.9°C 64.6°F18.1°C 84% 3.1 mph SW5.0 kmh SW 8.3 mph13.4 kmh 29.46 in997.6 mb 0.00 in0.0 mm 0.00 in0.0 mm 0.00 in0.0 mm
09:55 PM 69.6°F20.9°C 64.6°F18.1°C 84% 4.5 mph WSW7.2 kmh WSW 8.3 mph13.4 kmh 29.45 in997.3 mb 0.00 in0.0 mm 0.00 in0.0 mm 0.00 in0.0 mm
09:50 PM 69.6°F20.9°C 64.6°F18.1°C 84% 5.4 mph WSW8.7 kmh WSW 7.6 mph12.2 kmh 29.45 in997.3 mb 0.00 in0.0 mm 0.00 in0.0 mm 0.00 in0.0 mm
09:45 PM 69.8°F21.0°C 64.8°F18.2°C 84% 4.5 mph WSW7.2 kmh WSW 7.6 mph12.2 kmh 29.45 in997.3 mb 0.00 in0.0 mm 0.00 in0.0 mm 0.00 in0.0 mm
09:40 PM 70.0°F21.1°C 65.0°F18.3°C 84% 4.5 mph WSW7.2 kmh WSW 8.3 mph13.4 kmh 29.46 in997.6 mb 0.00 in0.0 mm 0.00 in0.0 mm 0.00 in0.0 mm
09:35 PM 70.2°F21.2°C 65.1°F18.4°C 84% 3.8 mph W6.1 kmh W 12.1 mph19.5 kmh 29.45 in997.3 mb 0.00 in0.0 mm 0.00 in0.0 mm 0.00 in0.0 mm
09:30 PM 70.3°F21.3°C 65.3°F18.5°C 84% 6.0 mph WSW9.7 kmh WSW 15.2 mph24.5 kmh 29.46 in997.6 mb 0.00 in0.0 mm 0.00 in0.0 mm 0.00 in0.0 mm
09:25 PM 70.3°F21.3°C 65.3°F18.5°C 84% 9.8 mph WSW15.8 kmh WSW 15.2 mph24.5 kmh 29.45 in997.3 mb 0.00 in0.0 mm 0.00 in0.0 mm 0.00 in0.0 mm
09:20 PM 70.5°F21.4°C 65.5°F18.6°C 84% 6.9 mph WSW11.1 kmh WSW 13.6 mph21.9 kmh 29.46 in997.6 mb 0.00 in0.0 mm 0.00 in0.0 mm 0.00 in0.0 mm
09:15 PM 70.7°F21.5°C 65.7°F18.7°C 84% 9.8 mph WSW15.8 kmh WSW 14.5 mph23.3 kmh 29.46 in997.6 mb 0.00 in0.0 mm 0.00 in0.0 mm 0.00 in0.0 mm
09:10 PM 70.9°F21.6°C 65.8°F18.8°C 84% 8.3 mph SW13.4 kmh SW 17.4 mph28.0 kmh 29.45 in997.3 mb 0.00 in0.0 mm 0.00 in0.0 mm 0.00 in0.0 mm
09:05 PM 70.9°F21.6°C 65.8°F18.8°C 84% 11.4 mph SW18.3 kmh SW 19.7 mph31.7 kmh 29.45 in997.3 mb 0.00 in0.0 mm 0.00 in0.0 mm 0.00 in0.0 mm
09:00 PM 71.2°F21.8°C 66.2°F19.0°C 84% 11.4 mph SW18.3 kmh SW 19.7 mph31.7 kmh 29.44 in997.0 mb 0.00 in0.0 mm 0.00 in0.0 mm 0.00 in0.0 mm
08:55 PM 71.4°F21.9°C 66.0°F18.9°C 83% 9.8 mph SW15.8 kmh SW 17.4 mph28.0 kmh 29.45 in997.3 mb 0.00 in0.0 mm 0.00 in0.0 mm 0.00 in0.0 mm
08:50 PM 71.6°F22.0°C 66.2°F19.0°C 83% 12.1 mph SW19.5 kmh SW 14.5 mph23.3 kmh 29.44 in997.0 mb 0.00 in0.0 mm 0.00 in0.0 mm 0.00 in0.0 mm
08:45 PM 71.6°F22.0°C 66.2°F19.0°C 83% 11.4 mph SW18.3 kmh SW 14.5 mph23.3 kmh 29.44 in997.0 mb 0.00 in0.0 mm 0.00 in0.0 mm 0.00 in0.0 mm
08:40 PM 71.8°F22.1°C 66.4°F19.1°C 83% 10.7 mph SW17.2 kmh SW 17.4 mph28.0 kmh 29.44 in997.0 mb 0.00 in0.0 mm 0.00 in0.0 mm 0.00 in0.0 mm
08:35 PM 71.8°F22.1°C 66.4°F19.1°C 83% 11.4 mph SW18.3 kmh SW 18.3 mph29.5 kmh 29.44 in997.0 mb 0.00 in0.0 mm 0.00 in0.0 mm 0.00 in0.0 mm
08:30 PM 72.0°F22.2°C 66.6°F19.2°C 83% 11.4 mph SW18.3 kmh SW 21.3 mph34.3 kmh 29.44 in997.0 mb 0.00 in0.0 mm 0.00 in0.0 mm 0.00 in0.0 mm
08:25 PM 72.1°F22.3°C 66.7°F19.3°C 83% 11.4 mph SW18.3 kmh SW 22.1 mph35.6 kmh 29.43 in996.6 mb 0.00 in0.0 mm 0.00 in0.0 mm 0.00 in0.0 mm
08:20 PM 72.5°F22.5°C 66.7°F19.3°C 82% 13.0 mph SW20.9 kmh SW 25.1 mph40.4 kmh 29.43 in996.6 mb 0.00 in0.0 mm 0.00 in0.0 mm 0.00 in0.0 mm
08:15 PM 72.9°F22.7°C 67.1°F19.5°C 82% 18.3 mph SW29.5 kmh SW 28.9 mph46.5 kmh 29.44 in997.0 mb 0.00 in0.0 mm 0.00 in0.0 mm 0.00 in0.0 mm
08:10 PM 73.2°F22.9°C 67.4°F19.7°C 82% 20.6 mph SW33.2 kmh SW 32.7 mph52.6 kmh 29.44 in997.0 mb 0.00 in0.0 mm 0.00 in0.0 mm 0.00 in0.0 mm
08:05 PM 73.9°F23.3°C 68.1°F20.1°C 82% 19.0 mph SW30.6 kmh SW 36.5 mph58.7 kmh 29.44 in997.0 mb 0.00 in0.0 mm 0.00 in0.0 mm 0.00 in0.0 mm
08:00 PM 74.8°F23.8°C 69.0°F20.6°C 82% 22.1 mph SW35.6 kmh SW 38.7 mph62.3 kmh 29.44 in997.0 mb 0.00 in0.0 mm 0.00 in0.0 mm 0.00 in0.0 mm
07:55 PM 75.9°F24.4°C 70.4°F21.3°C 83% 25.9 mph SW41.7 kmh SW 45.0 mph72.4 kmh 29.44 in997.0 mb 0.00 in0.0 mm 0.00 in0.0 mm 0.00 in0.0 mm
07:50 PM 76.3°F24.6°C 70.8°F21.6°C 83% 27.3 mph S43.9 kmh S 45.0 mph72.4 kmh 29.41 in995.9 mb 0.00 in0.0 mm 0.00 in0.0 mm 0.00 in0.0 mm
07:45 PM 76.3°F24.6°C 70.8°F21.6°C 83% 25.9 mph S41.7 kmh S 35.8 mph57.6 kmh 29.40 in995.6 mb 0.00 in0.0 mm 0.00 in0.0 mm 0.00 in0.0 mm
07:40 PM 76.1°F24.5°C 70.6°F21.4°C 83% 20.6 mph S33.2 kmh S 38.7 mph62.3 kmh 29.40 in995.6 mb 0.00 in0.0 mm 0.00 in0.0 mm 0.00 in0.0 mm
07:35 PM 76.1°F24.5°C 70.6°F21.4°C 83% 25.1 mph S40.4 kmh S 38.7 mph62.3 kmh 29.39 in995.3 mb 0.00 in0.0 mm 0.00 in0.0 mm 0.00 in0.0 mm
07:30 PM 76.1°F24.5°C 70.6°F21.4°C 83% 24.4 mph S39.3 kmh S 41.2 mph66.3 kmh 29.41 in995.9 mb 0.00 in0.0 mm 0.00 in0.0 mm 0.00 in0.0 mm
07:25 PM 76.1°F24.5°C 71.0°F21.7°C 84% 23.5 mph SSW37.8 kmh SSW 41.2 mph66.3 kmh 29.41 in995.9 mb 0.00 in0.0 mm 0.00 in0.0 mm 0.00 in0.0 mm
07:20 PM 75.9°F24.4°C 70.4°F21.3°C 83% 24.4 mph S39.3 kmh S 39.6 mph63.7 kmh 29.41 in995.9 mb 0.00 in0.0 mm 0.00 in0.0 mm 0.00 in0.0 mm
07:15 PM 75.9°F24.4°C 70.4°F21.3°C 83% 21.3 mph SSW34.3 kmh SSW 39.6 mph63.7 kmh 29.42 in996.3 mb 0.00 in0.0 mm 0.00 in0.0 mm 0.00 in0.0 mm
07:10 PM 75.7°F24.3°C 70.3°F21.3°C 83% 27.3 mph SSW43.9 kmh SSW 37.4 mph60.2 kmh 29.41 in995.9 mb 0.00 in0.0 mm 0.00 in0.0 mm 0.00 in0.0 mm
07:05 PM 75.7°F24.3°C 70.3°F21.3°C 83% 21.3 mph S34.3 kmh S 37.4 mph60.2 kmh 29.41 in995.9 mb 0.00 in0.0 mm 0.00 in0.0 mm 0.00 in0.0 mm
07:00 PM 75.7°F24.3°C 70.3°F21.3°C 83% 22.1 mph SSW35.6 kmh SSW 40.3 mph64.9 kmh 29.41 in995.9 mb 0.00 in0.0 mm 0.00 in0.0 mm 0.00 in0.0 mm
06:55 PM 75.7°F24.3°C 70.3°F21.3°C 83% 25.1 mph SSW40.4 kmh SSW 40.3 mph64.9 kmh 29.41 in995.9 mb 0.00 in0.0 mm 0.00 in0.0 mm 0.00 in0.0 mm
06:50 PM 75.7°F24.3°C 70.3°F21.3°C 83% 28.9 mph S46.5 kmh S 35.8 mph57.6 kmh 29.41 in995.9 mb 0.00 in0.0 mm 0.00 in0.0 mm 0.00 in0.0 mm
06:45 PM 75.9°F24.4°C 70.4°F21.3°C 83% 22.8 mph S36.7 kmh S 34.9 mph56.2 kmh 29.41 in995.9 mb 0.00 in0.0 mm 0.00 in0.0 mm 0.00 in0.0 mm
06:40 PM 76.1°F24.5°C 70.3°F21.3°C 82% 22.8 mph S36.7 kmh S 33.6 mph54.1 kmh 29.41 in995.9 mb 0.00 in0.0 mm 0.00 in0.0 mm 0.00 in0.0 mm
06:35 PM 76.3°F24.6°C 70.4°F21.3°C 82% 26.6 mph S42.8 kmh S 34.2 mph55.0 kmh 29.40 in995.6 mb 0.00 in0.0 mm 0.00 in0.0 mm 0.00 in0.0 mm
06:30 PM 76.5°F24.7°C 70.6°F21.4°C 82% 25.9 mph S41.7 kmh S 34.2 mph55.0 kmh 29.41 in995.9 mb 0.00 in0.0 mm 0.00 in0.0 mm 0.00 in0.0 mm
06:25 PM 76.8°F24.9°C 70.6°F21.4°C 81% 25.1 mph SSW40.4 kmh SSW 33.6 mph54.1 kmh 29.42 in996.3 mb 0.00 in0.0 mm 0.00 in0.0 mm 0.00 in0.0 mm
06:20 PM 77.0°F25.0°C 70.8°F21.6°C 81% 18.3 mph SSW29.5 kmh SSW 36.5 mph58.7 kmh 29.42 in996.3 mb 0.00 in0.0 mm 0.00 in0.0 mm 0.00 in0.0 mm
06:15 PM 77.2°F25.1°C 70.6°F21.4°C 80% 17.4 mph S28.0 kmh S 38.7 mph62.3 kmh 29.42 in996.3 mb 0.00 in0.0 mm 0.00 in0.0 mm 0.00 in0.0 mm
06:10 PM 77.4°F25.2°C 70.8°F21.6°C 80% 28.9 mph S46.5 kmh S 41.8 mph67.3 kmh 29.39 in995.3 mb 0.00 in0.0 mm 0.00 in0.0 mm 0.00 in0.0 mm
06:05 PM 77.7°F25.4°C 70.7°F21.5°C 79% 26.6 mph S42.8 kmh S 41.8 mph67.3 kmh 29.40 in995.6 mb 0.00 in0.0 mm 0.00 in0.0 mm 0.00 in0.0 mm
06:00 PM 77.9°F25.5°C 70.9°F21.6°C 79% 31.1 mph S50.1 kmh S 38.0 mph61.2 kmh 29.41 in995.9 mb 0.00 in0.0 mm 0.00 in0.0 mm 0.00 in0.0 mm
05:55 PM 78.3°F25.7°C 71.3°F21.8°C 79% 28.2 mph S45.4 kmh S 38.0 mph61.2 kmh 29.41 in995.9 mb 0.00 in0.0 mm 0.00 in0.0 mm 0.00 in0.0 mm
05:50 PM 78.3°F25.7°C 71.3°F21.8°C 79% 28.9 mph S46.5 kmh S 38.0 mph61.2 kmh 29.41 in995.9 mb 0.00 in0.0 mm 0.00 in0.0 mm 0.00 in0.0 mm
05:45 PM 78.4°F25.8°C 71.4°F21.9°C 79% 22.8 mph S36.7 kmh S 37.4 mph60.2 kmh 29.41 in995.9 mb 0.00 in0.0 mm 0.00 in0.0 mm 0.00 in0.0 mm
05:40 PM 78.4°F25.8°C 71.1°F21.7°C 78% 27.3 mph S43.9 kmh S 34.9 mph56.2 kmh 29.41 in995.9 mb 0.00 in0.0 mm 0.00 in0.0 mm 0.00 in0.0 mm
05:35 PM 79.0°F26.1°C 71.6°F22.0°C 78% 25.1 mph S40.4 kmh S 37.4 mph60.2 kmh 29.41 in995.9 mb 0.00 in0.0 mm 0.00 in0.0 mm 0.00 in0.0 mm
05:30 PM 79.0°F26.1°C 71.6°F22.0°C 78% 27.3 mph S43.9 kmh S 41.2 mph66.3 kmh 29.42 in996.3 mb 0.00 in0.0 mm 0.00 in0.0 mm 0.00 in0.0 mm
05:25 PM 79.0°F26.1°C 71.6°F22.0°C 78% 22.1 mph S35.6 kmh S 41.2 mph66.3 kmh 29.42 in996.3 mb 0.00 in0.0 mm 0.00 in0.0 mm 0.00 in0.0 mm
05:20 PM 79.2°F26.2°C 71.4°F21.9°C 77% 26.6 mph S42.8 kmh S 38.7 mph62.3 kmh 29.43 in996.6 mb 0.00 in0.0 mm 0.00 in0.0 mm 0.00 in0.0 mm
05:15 PM 79.5°F26.4°C 71.7°F22.1°C 77% 26.6 mph S42.8 kmh S 38.0 mph61.2 kmh 29.43 in996.6 mb 0.00 in0.0 mm 0.00 in0.0 mm 0.00 in0.0 mm
05:10 PM 79.3°F26.3°C 71.6°F22.0°C 77% 24.4 mph S39.3 kmh S 38.7 mph62.3 kmh 29.43 in996.6 mb 0.00 in0.0 mm 0.00 in0.0 mm 0.00 in0.0 mm
05:05 PM 79.5°F26.4°C 71.7°F22.1°C 77% 28.9 mph S46.5 kmh S 40.3 mph64.9 kmh 29.44 in997.0 mb 0.00 in0.0 mm 0.00 in0.0 mm 0.00 in0.0 mm
05:00 PM 79.7°F26.5°C 71.9°F22.2°C 77% 27.3 mph S43.9 kmh S 45.0 mph72.4 kmh 29.43 in996.6 mb 0.00 in0.0 mm 0.00 in0.0 mm 0.00 in0.0 mm
04:55 PM 79.7°F26.5°C 71.9°F22.2°C 77% 28.9 mph S46.5 kmh S 45.0 mph72.4 kmh 29.44 in997.0 mb 0.00 in0.0 mm 0.00 in0.0 mm 0.00 in0.0 mm
04:50 PM 79.9°F26.6°C 71.7°F22.1°C 76% 31.1 mph S50.1 kmh S 45.6 mph73.4 kmh 29.43 in996.6 mb 0.00 in0.0 mm 0.00 in0.0 mm 0.00 in0.0 mm
04:45 PM 80.2°F26.8°C 72.0°F22.2°C 76% 24.4 mph S39.3 kmh S 45.6 mph73.4 kmh 29.44 in997.0 mb 0.00 in0.0 mm 0.00 in0.0 mm 0.00 in0.0 mm
04:40 PM 80.2°F26.8°C 72.0°F22.2°C 76% 25.1 mph S40.4 kmh S 38.0 mph61.2 kmh 29.44 in997.0 mb 0.00 in0.0 mm 0.00 in0.0 mm 0.00 in0.0 mm
04:35 PM 80.2°F26.8°C 71.6°F22.0°C 75% 22.8 mph S36.7 kmh S 38.0 mph61.2 kmh 29.44 in997.0 mb 0.00 in0.0 mm 0.00 in0.0 mm 0.00 in0.0 mm
04:30 PM 80.4°F26.9°C 71.8°F22.1°C 75% 28.2 mph S45.4 kmh S 38.0 mph61.2 kmh 29.44 in997.0 mb 0.00 in0.0 mm 0.00 in0.0 mm 0.00 in0.0 mm
04:25 PM 80.6°F27.0°C 72.0°F22.2°C 75% 24.4 mph S39.3 kmh S 35.8 mph57.6 kmh 29.45 in997.3 mb 0.00 in0.0 mm 0.00 in0.0 mm 0.00 in0.0 mm
04:20 PM 81.0°F27.2°C 72.3°F22.4°C 75% 25.9 mph S41.7 kmh S 38.7 mph62.3 kmh 29.45 in997.3 mb 0.00 in0.0 mm 0.00 in0.0 mm 0.00 in0.0 mm
04:15 PM 81.0°F27.2°C 71.9°F22.2°C 74% 29.8 mph S48.0 kmh S 45.6 mph73.4 kmh 29.44 in997.0 mb 0.00 in0.0 mm 0.00 in0.0 mm 0.00 in0.0 mm
04:10 PM 81.0°F27.2°C 71.9°F22.2°C 74% 26.6 mph S42.8 kmh S 45.6 mph73.4 kmh 29.45 in997.3 mb 0.00 in0.0 mm 0.00 in0.0 mm 0.00 in0.0 mm
04:05 PM 81.1°F27.3°C 72.1°F22.3°C 74% 28.2 mph S45.4 kmh S 40.3 mph64.9 kmh 29.46 in997.6 mb 0.00 in0.0 mm 0.00 in0.0 mm 0.00 in0.0 mm
04:00 PM 81.1°F27.3°C 72.1°F22.3°C 74% 21.3 mph S34.3 kmh S 41.8 mph67.3 kmh 29.46 in997.6 mb 0.00 in0.0 mm 0.00 in0.0 mm 0.00 in0.0 mm
03:55 PM 81.7°F27.6°C 72.2°F22.3°C 73% 22.8 mph S36.7 kmh S 41.8 mph67.3 kmh 29.46 in997.6 mb 0.00 in0.0 mm 0.00 in0.0 mm 0.00 in0.0 mm
03:50 PM 81.9°F27.7°C 72.4°F22.4°C 73% 22.8 mph S36.7 kmh S 41.2 mph66.3 kmh 29.46 in997.6 mb 0.00 in0.0 mm 0.00 in0.0 mm 0.00 in0.0 mm
03:45 PM 82.0°F27.8°C 72.6°F22.6°C 73% 22.1 mph S35.6 kmh S 37.4 mph60.2 kmh 29.47 in998.0 mb 0.00 in0.0 mm 0.00 in0.0 mm 0.00 in0.0 mm
03:40 PM 82.0°F27.8°C 72.6°F22.6°C 73% 29.8 mph S48.0 kmh S 40.3 mph64.9 kmh 29.47 in998.0 mb 0.00 in0.0 mm 0.00 in0.0 mm 0.00 in0.0 mm
03:35 PM 82.4°F28.0°C 72.5°F22.5°C 72% 26.6 mph S42.8 kmh S 40.3 mph64.9 kmh 29.47 in998.0 mb 0.00 in0.0 mm 0.00 in0.0 mm 0.00 in0.0 mm
03:30 PM 82.8°F28.2°C 72.9°F22.7°C 72% 21.3 mph S34.3 kmh S 40.3 mph64.9 kmh 29.47 in998.0 mb 0.00 in0.0 mm 0.00 in0.0 mm 0.00 in0.0 mm
03:25 PM 82.8°F28.2°C 72.9°F22.7°C 72% 29.8 mph S48.0 kmh S 40.3 mph64.9 kmh 29.47 in998.0 mb 0.00 in0.0 mm 0.00 in0.0 mm 0.00 in0.0 mm
03:20 PM 82.4°F28.0°C 72.5°F22.5°C 72% 26.6 mph S42.8 kmh S 38.7 mph62.3 kmh 29.47 in998.0 mb 0.00 in0.0 mm 0.00 in0.0 mm 0.00 in0.0 mm
03:15 PM 83.1°F28.4°C 72.8°F22.7°C 71% 25.9 mph S41.7 kmh S 42.5 mph68.4 kmh 29.47 in998.0 mb 0.00 in0.0 mm 0.00 in0.0 mm 0.00 in0.0 mm
03:10 PM 83.3°F28.5°C 73.0°F22.8°C 71% 25.1 mph S40.4 kmh S 46.3 mph74.5 kmh 29.48 in998.3 mb 0.00 in0.0 mm 0.00 in0.0 mm 0.00 in0.0 mm
03:05 PM 83.1°F28.4°C 72.8°F22.7°C 71% 23.5 mph S37.8 kmh S 46.3 mph74.5 kmh 29.48 in998.3 mb 0.00 in0.0 mm 0.00 in0.0 mm 0.00 in0.0 mm
03:00 PM 83.3°F28.5°C 73.0°F22.8°C 71% 25.9 mph S41.7 kmh S 38.7 mph62.3 kmh 29.48 in998.3 mb 0.00 in0.0 mm 0.00 in0.0 mm 0.00 in0.0 mm
02:55 PM 83.5°F28.6°C 73.1°F22.8°C 71% 28.2 mph S45.4 kmh S 41.2 mph66.3 kmh 29.48 in998.3 mb 0.00 in0.0 mm 0.00 in0.0 mm 0.00 in0.0 mm
02:50 PM 83.7°F28.7°C 73.3°F22.9°C 71% 32.0 mph S51.5 kmh S 41.2 mph66.3 kmh 29.49 in998.6 mb 0.00 in0.0 mm 0.00 in0.0 mm 0.00 in0.0 mm
02:45 PM 83.7°F28.7°C 73.3°F22.9°C 71% 30.4 mph S48.9 kmh S 41.2 mph66.3 kmh 29.49 in998.6 mb 0.00 in0.0 mm 0.00 in0.0 mm 0.00 in0.0 mm
02:40 PM 83.7°F28.7°C 73.3°F22.9°C 71% 27.3 mph S43.9 kmh S 41.2 mph66.3 kmh 29.49 in998.6 mb 0.00 in0.0 mm 0.00 in0.0 mm 0.00 in0.0 mm
02:35 PM 83.7°F28.7°C 73.3°F22.9°C 71% 21.3 mph S34.3 kmh S 34.9 mph56.2 kmh 29.50 in999.0 mb 0.00 in0.0 mm 0.00 in0.0 mm 0.00 in0.0 mm
02:30 PM 83.7°F28.7°C 73.3°F22.9°C 71% 22.1 mph S35.6 kmh S 40.3 mph64.9 kmh 29.50 in999.0 mb 0.00 in0.0 mm 0.00 in0.0 mm 0.00 in0.0 mm
02:25 PM 83.7°F28.7°C 73.3°F22.9°C 71% 25.1 mph S40.4 kmh S 40.3 mph64.9 kmh 29.50 in999.0 mb 0.00 in0.0 mm 0.00 in0.0 mm 0.00 in0.0 mm
02:20 PM 83.8°F28.8°C 73.1°F22.8°C 70% 22.8 mph S36.7 kmh S 39.6 mph63.7 kmh 29.51 in999.3 mb 0.00 in0.0 mm 0.00 in0.0 mm 0.00 in0.0 mm
02:15 PM 83.8°F28.8°C 73.1°F22.8°C 70% 24.4 mph S39.3 kmh S 39.6 mph63.7 kmh 29.51 in999.3 mb 0.00 in0.0 mm 0.00 in0.0 mm 0.00 in0.0 mm
02:10 PM 84.4°F29.1°C 73.2°F22.9°C 69% 27.3 mph S43.9 kmh S 35.8 mph57.6 kmh 29.51 in999.3 mb 0.00 in0.0 mm 0.00 in0.0 mm 0.00 in0.0 mm
02:05 PM 84.6°F29.2°C 73.3°F22.9°C 69% 20.6 mph S33.2 kmh S 38.7 mph62.3 kmh 29.51 in999.3 mb 0.00 in0.0 mm 0.00 in0.0 mm 0.00 in0.0 mm
02:00 PM 84.7°F29.3°C 73.5°F23.1°C 69% 24.4 mph S39.3 kmh S 38.7 mph62.3 kmh 29.51 in999.3 mb 0.00 in0.0 mm 0.00 in0.0 mm 0.00 in0.0 mm
01:55 PM 84.9°F29.4°C 73.7°F23.2°C 69% 30.4 mph S48.9 kmh S 38.7 mph62.3 kmh 29.51 in999.3 mb 0.00 in0.0 mm 0.00 in0.0 mm 0.00 in0.0 mm
01:50 PM 84.7°F29.3°C 73.5°F23.1°C 69% 22.8 mph S36.7 kmh S 40.3 mph64.9 kmh 29.51 in999.3 mb 0.00 in0.0 mm 0.00 in0.0 mm 0.00 in0.0 mm
01:45 PM 84.9°F29.4°C 73.7°F23.2°C 69% 25.1 mph S40.4 kmh S 45.6 mph73.4 kmh 29.51 in999.3 mb 0.00 in0.0 mm 0.00 in0.0 mm 0.00 in0.0 mm
01:40 PM 85.3°F29.6°C 73.6°F23.1°C 68% 30.4 mph S48.9 kmh S 45.6 mph73.4 kmh 29.51 in999.3 mb 0.00 in0.0 mm 0.00 in0.0 mm 0.00 in0.0 mm
01:35 PM 85.8°F29.9°C 74.1°F23.4°C 68% 35.8 mph S57.6 kmh S 45.6 mph73.4 kmh 29.51 in999.3 mb 0.00 in0.0 mm 0.00 in0.0 mm 0.00 in0.0 mm
01:30 PM 86.0°F30.0°C 73.8°F23.2°C 67% 34.2 mph S55.0 kmh S 48.8 mph78.5 kmh 29.51 in999.3 mb 0.00 in0.0 mm 0.00 in0.0 mm 0.00 in0.0 mm
01:25 PM 86.4°F30.2°C 74.2°F23.4°C 67% 38.7 mph S62.3 kmh S 48.8 mph78.5 kmh 29.51 in999.3 mb 0.00 in0.0 mm 0.00 in0.0 mm 0.00 in0.0 mm
01:20 PM 86.7°F30.4°C 74.1°F23.4°C 66% 33.6 mph S54.1 kmh S 42.5 mph68.4 kmh 29.52 in999.7 mb 0.00 in0.0 mm 0.00 in0.0 mm 0.00 in0.0 mm
01:15 PM 86.7°F30.4°C 74.5°F23.6°C 67% 22.8 mph S36.7 kmh S 42.5 mph68.4 kmh 29.52 in999.7 mb 0.00 in0.0 mm 0.00 in0.0 mm 0.00 in0.0 mm
01:10 PM 86.5°F30.3°C 73.9°F23.3°C 66% 26.6 mph S42.8 kmh S 55.5 mph89.3 kmh 29.52 in999.7 mb 0.00 in0.0 mm 0.00 in0.0 mm 0.00 in0.0 mm
01:05 PM 86.7°F30.4°C 74.5°F23.6°C 67% 34.9 mph S56.2 kmh S 55.5 mph89.3 kmh 29.52 in999.7 mb 0.00 in0.0 mm 0.00 in0.0 mm 0.00 in0.0 mm
01:00 PM 86.9°F30.5°C 74.7°F23.7°C 67% 36.5 mph S58.7 kmh S 55.5 mph89.3 kmh 29.52 in999.7 mb 0.00 in0.0 mm 0.00 in0.0 mm 0.00 in0.0 mm
12:55 PM 86.7°F30.4°C 74.5°F23.6°C 67% 27.3 mph S43.9 kmh S 35.8 mph57.6 kmh 29.53 in1000.0 mb 0.00 in0.0 mm 0.00 in0.0 mm 0.00 in0.0 mm
12:50 PM 86.4°F30.2°C 74.6°F23.7°C 68% 26.6 mph S42.8 kmh S 37.4 mph60.2 kmh 29.53 in1000.0 mb 0.00 in0.0 mm 0.00 in0.0 mm 0.00 in0.0 mm
12:45 PM 86.2°F30.1°C 74.4°F23.6°C 68% 24.4 mph S39.3 kmh S 40.3 mph64.9 kmh 29.54 in1000.3 mb 0.00 in0.0 mm 0.00 in0.0 mm 0.00 in0.0 mm
12:40 PM 86.4°F30.2°C 74.6°F23.7°C 68% 28.2 mph S45.4 kmh S 40.3 mph64.9 kmh 29.54 in1000.3 mb 0.00 in0.0 mm 0.00 in0.0 mm 0.00 in0.0 mm
12:35 PM 86.2°F30.1°C 74.4°F23.6°C 68% 28.2 mph S45.4 kmh S 38.7 mph62.3 kmh 29.54 in1000.3 mb 0.00 in0.0 mm 0.00 in0.0 mm 0.00 in0.0 mm
12:30 PM 86.4°F30.2°C 74.6°F23.7°C 68% 30.4 mph S48.9 kmh S 39.6 mph63.7 kmh 29.54 in1000.3 mb 0.00 in0.0 mm 0.00 in0.0 mm 0.00 in0.0 mm
12:25 PM 86.0°F30.0°C 74.7°F23.7°C 69% 25.9 mph S41.7 kmh S 41.8 mph67.3 kmh 29.55 in1000.7 mb 0.00 in0.0 mm 0.00 in0.0 mm 0.00 in0.0 mm
12:20 PM 85.6°F29.8°C 74.4°F23.6°C 69% 32.7 mph S52.6 kmh S 41.8 mph67.3 kmh 29.55 in1000.7 mb 0.00 in0.0 mm 0.00 in0.0 mm 0.00 in0.0 mm
12:15 PM 86.0°F30.0°C 74.3°F23.5°C 68% 28.2 mph S45.4 kmh S 34.2 mph55.0 kmh 29.56 in1001.0 mb 0.00 in0.0 mm 0.00 in0.0 mm 0.00 in0.0 mm
12:10 PM 86.0°F30.0°C 74.3°F23.5°C 68% 22.8 mph S36.7 kmh S 33.6 mph54.1 kmh 29.55 in1000.7 mb 0.00 in0.0 mm 0.00 in0.0 mm 0.00 in0.0 mm
12:05 PM 85.8°F29.9°C 74.5°F23.6°C 69% 22.8 mph S36.7 kmh S 44.1 mph71.0 kmh 29.56 in1001.0 mb 0.00 in0.0 mm 0.00 in0.0 mm 0.00 in0.0 mm
12:00 PM 85.5°F29.7°C 74.6°F23.7°C 70% 25.1 mph S40.4 kmh S 44.1 mph71.0 kmh 29.57 in1001.4 mb 0.00 in0.0 mm 0.00 in0.0 mm 0.00 in0.0 mm
11:55 AM 85.1°F29.5°C 73.8°F23.2°C 69% 25.9 mph S41.7 kmh S 43.4 mph69.8 kmh 29.57 in1001.4 mb 0.00 in0.0 mm 0.00 in0.0 mm 0.00 in0.0 mm
11:50 AM 85.6°F29.8°C 74.4°F23.6°C 69% 24.4 mph S39.3 kmh S 43.4 mph69.8 kmh 29.58 in1001.7 mb 0.00 in0.0 mm 0.00 in0.0 mm 0.00 in0.0 mm
11:45 AM 86.0°F30.0°C 74.7°F23.7°C 69% 32.7 mph S52.6 kmh S 43.4 mph69.8 kmh 29.60 in1002.4 mb 0.00 in0.0 mm 0.00 in0.0 mm 0.00 in0.0 mm
11:40 AM 86.2°F30.1°C 74.9°F23.8°C 69% 29.8 mph S48.0 kmh S 37.4 mph60.2 kmh 29.58 in1001.7 mb 0.00 in0.0 mm 0.00 in0.0 mm 0.00 in0.0 mm
11:35 AM 85.8°F29.9°C 74.5°F23.6°C 69% 22.8 mph S36.7 kmh S 37.4 mph60.2 kmh 29.58 in1001.7 mb 0.00 in0.0 mm 0.00 in0.0 mm 0.00 in0.0 mm
11:30 AM 85.8°F29.9°C 75.0°F23.9°C 70% 21.3 mph S34.3 kmh S 37.4 mph60.2 kmh 29.59 in1002.0 mb 0.00 in0.0 mm 0.00 in0.0 mm 0.00 in0.0 mm
11:25 AM 85.6°F29.8°C 74.8°F23.8°C 70% 27.3 mph S43.9 kmh S 42.5 mph68.4 kmh 29.58 in1001.7 mb 0.00 in0.0 mm 0.00 in0.0 mm 0.00 in0.0 mm
11:20 AM 85.1°F29.5°C 74.7°F23.7°C 71% 30.4 mph S48.9 kmh S 42.5 mph68.4 kmh 29.58 in1001.7 mb 0.00 in0.0 mm 0.00 in0.0 mm 0.00 in0.0 mm
11:15 AM 85.1°F29.5°C 74.7°F23.7°C 71% 29.8 mph S48.0 kmh S 38.7 mph62.3 kmh 29.58 in1001.7 mb 0.00 in0.0 mm 0.00 in0.0 mm 0.00 in0.0 mm
11:10 AM 84.9°F29.4°C 74.5°F23.6°C 71% 20.6 mph S33.2 kmh S 38.7 mph62.3 kmh 29.59 in1002.0 mb 0.00 in0.0 mm 0.00 in0.0 mm 0.00 in0.0 mm
11:05 AM 84.7°F29.3°C 74.8°F23.8°C 72% 23.5 mph S37.8 kmh S 32.7 mph52.6 kmh 29.59 in1002.0 mb 0.00 in0.0 mm 0.00 in0.0 mm 0.00 in0.0 mm
11:00 AM 84.6°F29.2°C 74.6°F23.7°C 72% 22.8 mph S36.7 kmh S 32.7 mph52.6 kmh 29.59 in1002.0 mb 0.00 in0.0 mm 0.00 in0.0 mm 0.00 in0.0 mm
10:55 AM 84.6°F29.2°C 74.6°F23.7°C 72% 25.9 mph S41.7 kmh S 34.9 mph56.2 kmh 29.59 in1002.0 mb 0.00 in0.0 mm 0.00 in0.0 mm 0.00 in0.0 mm
10:50 AM 84.2°F29.0°C 74.7°F23.7°C 73% 26.6 mph S42.8 kmh S 38.0 mph61.2 kmh 29.59 in1002.0 mb 0.00 in0.0 mm 0.00 in0.0 mm 0.00 in0.0 mm
10:45 AM 84.0°F28.9°C 74.5°F23.6°C 73% 22.1 mph S35.6 kmh S 38.0 mph61.2 kmh 29.59 in1002.0 mb 0.00 in0.0 mm 0.00 in0.0 mm 0.00 in0.0 mm
10:40 AM 83.8°F28.8°C 74.7°F23.7°C 74% 21.3 mph S34.3 kmh S 33.6 mph54.1 kmh 29.59 in1002.0 mb 0.00 in0.0 mm 0.00 in0.0 mm 0.00 in0.0 mm
10:35 AM 83.3°F28.5°C 74.2°F23.4°C 74% 25.9 mph S41.7 kmh S 33.6 mph54.1 kmh 29.59 in1002.0 mb 0.00 in0.0 mm 0.00 in0.0 mm 0.00 in0.0 mm
10:30 AM 83.1°F28.4°C 74.4°F23.6°C 75% 23.5 mph S37.8 kmh S 35.8 mph57.6 kmh 29.60 in1002.4 mb 0.00 in0.0 mm 0.00 in0.0 mm 0.00 in0.0 mm
10:25 AM 82.6°F28.1°C 74.3°F23.5°C 76% 28.2 mph S45.4 kmh S 35.8 mph57.6 kmh 29.60 in1002.4 mb 0.00 in0.0 mm 0.00 in0.0 mm 0.00 in0.0 mm
10:20 AM 81.9°F27.7°C 74.0°F23.3°C 77% 29.8 mph S48.0 kmh S 33.6 mph54.1 kmh 29.60 in1002.4 mb 0.00 in0.0 mm 0.00 in0.0 mm 0.00 in0.0 mm
10:15 AM 81.9°F27.7°C 74.4°F23.6°C 78% 22.8 mph S36.7 kmh S 32.0 mph51.5 kmh 29.60 in1002.4 mb 0.00 in0.0 mm 0.00 in0.0 mm 0.00 in0.0 mm
10:10 AM 81.1°F27.3°C 74.1°F23.4°C 79% 18.3 mph S29.5 kmh S 29.8 mph48.0 kmh 29.61 in1002.7 mb 0.00 in0.0 mm 0.00 in0.0 mm 0.00 in0.0 mm
10:05 AM 80.1°F26.7°C 73.8°F23.2°C 81% 15.2 mph S24.5 kmh S 32.7 mph52.6 kmh 29.61 in1002.7 mb 0.00 in0.0 mm 0.00 in0.0 mm 0.00 in0.0 mm
10:00 AM 79.5°F26.4°C 73.2°F22.9°C 81% 22.1 mph S35.6 kmh S 34.9 mph56.2 kmh 29.61 in1002.7 mb 0.00 in0.0 mm 0.00 in0.0 mm 0.00 in0.0 mm
09:55 AM 78.6°F25.9°C 72.7°F22.6°C 82% 15.9 mph S25.6 kmh S 34.9 mph56.2 kmh 29.62 in1003.0 mb 0.00 in0.0 mm 0.00 in0.0 mm 0.00 in0.0 mm
09:50 AM 78.4°F25.8°C 72.5°F22.5°C 82% 27.3 mph S43.9 kmh S 34.9 mph56.2 kmh 29.62 in1003.0 mb 0.00 in0.0 mm 0.00 in0.0 mm 0.00 in0.0 mm
09:45 AM 78.3°F25.7°C 72.4°F22.4°C 82% 22.8 mph S36.7 kmh S 34.9 mph56.2 kmh 29.62 in1003.0 mb 0.00 in0.0 mm 0.00 in0.0 mm 0.00 in0.0 mm
09:40 AM 78.3°F25.7°C 72.4°F22.4°C 82% 23.5 mph S37.8 kmh S 32.7 mph52.6 kmh 29.62 in1003.0 mb 0.00 in0.0 mm 0.00 in0.0 mm 0.00 in0.0 mm
09:35 AM 78.3°F25.7°C 72.7°F22.6°C 83% 18.3 mph S29.5 kmh S 28.2 mph45.4 kmh 29.62 in1003.0 mb 0.00 in0.0 mm 0.00 in0.0 mm 0.00 in0.0 mm
09:30 AM 78.1°F25.6°C 72.5°F22.5°C 83% 14.5 mph S23.3 kmh S 25.1 mph40.4 kmh 29.62 in1003.0 mb 0.00 in0.0 mm 0.00 in0.0 mm 0.00 in0.0 mm
09:25 AM 77.9°F25.5°C 72.4°F22.4°C 83% 13.0 mph S20.9 kmh S 25.1 mph40.4 kmh 29.63 in1003.4 mb 0.00 in0.0 mm 0.00 in0.0 mm 0.00 in0.0 mm
09:20 AM 77.9°F25.5°C 72.7°F22.6°C 84% 14.5 mph S23.3 kmh S 23.5 mph37.8 kmh 29.63 in1003.4 mb 0.00 in0.0 mm 0.00 in0.0 mm 0.00 in0.0 mm
09:15 AM 77.9°F25.5°C 72.7°F22.6°C 84% 17.4 mph S28.0 kmh S 25.9 mph41.7 kmh 29.63 in1003.4 mb 0.00 in0.0 mm 0.00 in0.0 mm 0.00 in0.0 mm
09:10 AM 77.5°F25.3°C 72.7°F22.6°C 85% 16.8 mph S27.0 kmh S 25.9 mph41.7 kmh 29.63 in1003.4 mb 0.00 in0.0 mm 0.00 in0.0 mm 0.00 in0.0 mm
09:05 AM 77.0°F25.0°C 72.5°F22.5°C 86% 17.4 mph S28.0 kmh S 25.9 mph41.7 kmh 29.63 in1003.4 mb 0.00 in0.0 mm 0.00 in0.0 mm 0.00 in0.0 mm
09:00 AM 76.6°F24.8°C 72.2°F22.3°C 86% 15.2 mph S24.5 kmh S 24.4 mph39.3 kmh 29.63 in1003.4 mb 0.00 in0.0 mm 0.00 in0.0 mm 0.00 in0.0 mm
08:55 AM 76.3°F24.6°C 71.8°F22.1°C 86% 15.2 mph S24.5 kmh S 24.4 mph39.3 kmh 29.63 in1003.4 mb 0.00 in0.0 mm 0.00 in0.0 mm 0.00 in0.0 mm
08:50 AM 76.1°F24.5°C 72.0°F22.2°C 87% 15.9 mph S25.6 kmh S 24.4 mph39.3 kmh 29.63 in1003.4 mb 0.00 in0.0 mm 0.00 in0.0 mm 0.00 in0.0 mm
08:45 AM 75.9°F24.4°C 71.8°F22.1°C 87% 11.4 mph S18.3 kmh S 19.7 mph31.7 kmh 29.62 in1003.0 mb 0.00 in0.0 mm 0.00 in0.0 mm 0.00 in0.0 mm
08:40 AM 75.4°F24.1°C 71.3°F21.8°C 87% 11.4 mph S18.3 kmh S 21.3 mph34.3 kmh 29.62 in1003.0 mb 0.00 in0.0 mm 0.00 in0.0 mm 0.00 in0.0 mm
08:35 AM 75.2°F24.0°C 71.1°F21.7°C 87% 13.0 mph S20.9 kmh S 21.3 mph34.3 kmh 29.62 in1003.0 mb 0.00 in0.0 mm 0.00 in0.0 mm 0.00 in0.0 mm
08:30 AM 74.8°F23.8°C 71.1°F21.7°C 88% 9.8 mph S15.8 kmh S 27.3 mph43.9 kmh 29.61 in1002.7 mb 0.00 in0.0 mm 0.00 in0.0 mm 0.00 in0.0 mm
08:25 AM 74.8°F23.8°C 71.1°F21.7°C 88% 9.2 mph S14.8 kmh S 27.3 mph43.9 kmh 29.62 in1003.0 mb 0.00 in0.0 mm 0.00 in0.0 mm 0.00 in0.0 mm
08:20 AM 74.7°F23.7°C 70.9°F21.6°C 88% 16.8 mph S27.0 kmh S 21.3 mph34.3 kmh 29.61 in1002.7 mb 0.00 in0.0 mm 0.00 in0.0 mm 0.00 in0.0 mm
08:15 AM 74.5°F23.6°C 70.7°F21.5°C 88% 14.5 mph S23.3 kmh S 20.6 mph33.2 kmh 29.61 in1002.7 mb 0.00 in0.0 mm 0.00 in0.0 mm 0.00 in0.0 mm
08:10 AM 74.3°F23.5°C 70.6°F21.4°C 88% 13.0 mph S20.9 kmh S 20.6 mph33.2 kmh 29.61 in1002.7 mb 0.00 in0.0 mm 0.00 in0.0 mm 0.00 in0.0 mm
08:05 AM 74.3°F23.5°C 70.6°F21.4°C 88% 13.0 mph S20.9 kmh S 22.8 mph36.7 kmh 29.61 in1002.7 mb 0.00 in0.0 mm 0.00 in0.0 mm 0.00 in0.0 mm
08:00 AM 74.1°F23.4°C 70.4°F21.3°C 88% 10.7 mph S17.2 kmh S 22.8 mph36.7 kmh 29.62 in1003.0 mb 0.00 in0.0 mm 0.00 in0.0 mm 0.00 in0.0 mm
07:55 AM 73.9°F23.3°C 70.2°F21.2°C 88% 13.0 mph S20.9 kmh S 20.6 mph33.2 kmh 29.61 in1002.7 mb 0.00 in0.0 mm 0.00 in0.0 mm 0.00 in0.0 mm
07:50 AM 73.9°F23.3°C 70.2°F21.2°C 88% 13.6 mph S21.9 kmh S 19.0 mph30.6 kmh 29.62 in1003.0 mb 0.00 in0.0 mm 0.00 in0.0 mm 0.00 in0.0 mm
07:45 AM 73.9°F23.3°C 70.2°F21.2°C 88% 11.4 mph S18.3 kmh S 20.6 mph33.2 kmh 29.62 in1003.0 mb 0.00 in0.0 mm 0.00 in0.0 mm 0.00 in0.0 mm
07:40 AM 73.9°F23.3°C 70.2°F21.2°C 88% 12.1 mph S19.5 kmh S 21.3 mph34.3 kmh 29.62 in1003.0 mb 0.00 in0.0 mm 0.00 in0.0 mm 0.00 in0.0 mm
07:35 AM 73.9°F23.3°C 70.2°F21.2°C 88% 14.5 mph S23.3 kmh S 25.9 mph41.7 kmh 29.61 in1002.7 mb 0.00 in0.0 mm 0.00 in0.0 mm 0.00 in0.0 mm
07:30 AM 73.9°F23.3°C 70.2°F21.2°C 88% 14.5 mph S23.3 kmh S 25.9 mph41.7 kmh 29.60 in1002.4 mb 0.00 in0.0 mm 0.00 in0.0 mm 0.00 in0.0 mm
07:25 AM 73.9°F23.3°C 70.2°F21.2°C 88% 19.7 mph S31.7 kmh S 23.5 mph37.8 kmh 29.61 in1002.7 mb 0.00 in0.0 mm 0.00 in0.0 mm 0.00 in0.0 mm
07:20 AM 73.9°F23.3°C 70.2°F21.2°C 88% 14.5 mph S23.3 kmh S 24.4 mph39.3 kmh 29.61 in1002.7 mb 0.00 in0.0 mm 0.00 in0.0 mm 0.00 in0.0 mm
07:15 AM 74.1°F23.4°C 70.4°F21.3°C 88% 18.3 mph S29.5 kmh S 25.9 mph41.7 kmh 29.61 in1002.7 mb 0.00 in0.0 mm 0.00 in0.0 mm 0.00 in0.0 mm
07:10 AM 74.1°F23.4°C 70.4°F21.3°C 88% 15.9 mph S25.6 kmh S 26.6 mph42.8 kmh 29.61 in1002.7 mb 0.00 in0.0 mm 0.00 in0.0 mm 0.00 in0.0 mm
07:05 AM 74.1°F23.4°C 70.4°F21.3°C 88% 13.0 mph S20.9 kmh S 26.6 mph42.8 kmh 29.61 in1002.7 mb 0.00 in0.0 mm 0.00 in0.0 mm 0.00 in0.0 mm
07:00 AM 74.1°F23.4°C 70.0°F21.1°C 87% 17.4 mph S28.0 kmh S 26.6 mph42.8 kmh 29.62 in1003.0 mb 0.00 in0.0 mm 0.00 in0.0 mm 0.00 in0.0 mm
06:55 AM 74.3°F23.5°C 70.2°F21.2°C 87% 20.6 mph S33.2 kmh S 26.6 mph42.8 kmh 29.62 in1003.0 mb 0.00 in0.0 mm 0.00 in0.0 mm 0.00 in0.0 mm
06:50 AM 74.1°F23.4°C 70.0°F21.1°C 87% 15.9 mph S25.6 kmh S 27.3 mph43.9 kmh 29.62 in1003.0 mb 0.00 in0.0 mm 0.00 in0.0 mm 0.00 in0.0 mm
06:45 AM 74.3°F23.5°C 70.2°F21.2°C 87% 18.3 mph S29.5 kmh S 27.3 mph43.9 kmh 29.62 in1003.0 mb 0.00 in0.0 mm 0.00 in0.0 mm 0.00 in0.0 mm
06:40 AM 74.3°F23.5°C 70.2°F21.2°C 87% 19.7 mph S31.7 kmh S 25.9 mph41.7 kmh 29.62 in1003.0 mb 0.00 in0.0 mm 0.00 in0.0 mm 0.00 in0.0 mm
06:35 AM 74.3°F23.5°C 70.2°F21.2°C 87% 19.0 mph S30.6 kmh S 26.6 mph42.8 kmh 29.62 in1003.0 mb 0.00 in0.0 mm 0.00 in0.0 mm 0.00 in0.0 mm
06:30 AM 74.1°F23.4°C 70.0°F21.1°C 87% 19.0 mph S30.6 kmh S 26.6 mph42.8 kmh 29.62 in1003.0 mb 0.00 in0.0 mm 0.00 in0.0 mm 0.00 in0.0 mm
06:25 AM 73.9°F23.3°C 69.9°F21.1°C 87% 15.2 mph S24.5 kmh S 22.1 mph35.6 kmh 29.62 in1003.0 mb 0.00 in0.0 mm 0.00 in0.0 mm 0.00 in0.0 mm
06:20 AM 74.3°F23.5°C 70.2°F21.2°C 87% 16.8 mph S27.0 kmh S 25.9 mph41.7 kmh 29.62 in1003.0 mb 0.00 in0.0 mm 0.00 in0.0 mm 0.00 in0.0 mm
06:15 AM 74.3°F23.5°C 70.2°F21.2°C 87% 16.8 mph S27.0 kmh S 25.9 mph41.7 kmh 29.62 in1003.0 mb 0.00 in0.0 mm 0.00 in0.0 mm 0.00 in0.0 mm
06:10 AM 74.1°F23.4°C 70.0°F21.1°C 87% 15.2 mph S24.5 kmh S 25.9 mph41.7 kmh 29.62 in1003.0 mb 0.00 in0.0 mm 0.00 in0.0 mm 0.00 in0.0 mm
06:05 AM 74.3°F23.5°C 70.2°F21.2°C 87% 13.6 mph S21.9 kmh S 24.4 mph39.3 kmh 29.62 in1003.0 mb 0.00 in0.0 mm 0.00 in0.0 mm 0.00 in0.0 mm
06:00 AM 74.1°F23.4°C 70.0°F21.1°C 87% 15.9 mph S25.6 kmh S 24.4 mph39.3 kmh 29.62 in1003.0 mb 0.00 in0.0 mm 0.00 in0.0 mm 0.00 in0.0 mm
05:55 AM 74.1°F23.4°C 70.0°F21.1°C 87% 16.8 mph S27.0 kmh S 25.1 mph40.4 kmh 29.62 in1003.0 mb 0.00 in0.0 mm 0.00 in0.0 mm 0.00 in0.0 mm
05:50 AM 74.1°F23.4°C 70.0°F21.1°C 87% 15.2 mph S24.5 kmh S 25.1 mph40.4 kmh 29.62 in1003.0 mb 0.00 in0.0 mm 0.00 in0.0 mm 0.00 in0.0 mm
05:45 AM 73.9°F23.3°C 69.9°F21.1°C 87% 19.0 mph S30.6 kmh S 24.4 mph39.3 kmh 29.62 in1003.0 mb 0.00 in0.0 mm 0.00 in0.0 mm 0.00 in0.0 mm
05:40 AM 73.9°F23.3°C 69.9°F21.1°C 87% 13.6 mph S21.9 kmh S 22.8 mph36.7 kmh 29.62 in1003.0 mb 0.00 in0.0 mm 0.00 in0.0 mm 0.00 in0.0 mm
05:35 AM 73.6°F23.1°C 69.2°F20.7°C 86% 17.4 mph S28.0 kmh S 22.8 mph36.7 kmh 29.63 in1003.4 mb 0.00 in0.0 mm 0.00 in0.0 mm 0.00 in0.0 mm
05:30 AM 73.8°F23.2°C 69.4°F20.8°C 86% 15.9 mph S25.6 kmh S 22.8 mph36.7 kmh 29.62 in1003.0 mb 0.00 in0.0 mm 0.00 in0.0 mm 0.00 in0.0 mm
05:25 AM 73.6°F23.1°C 69.2°F20.7°C 86% 13.6 mph S21.9 kmh S 25.1 mph40.4 kmh 29.62 in1003.0 mb 0.00 in0.0 mm 0.00 in0.0 mm 0.00 in0.0 mm
05:20 AM 73.6°F23.1°C 69.2°F20.7°C 86% 13.0 mph S20.9 kmh S 25.1 mph40.4 kmh 29.63 in1003.4 mb 0.00 in0.0 mm 0.00 in0.0 mm 0.00 in0.0 mm
05:15 AM 73.6°F23.1°C 69.2°F20.7°C 86% 18.3 mph S29.5 kmh S 25.1 mph40.4 kmh 29.62 in1003.0 mb 0.00 in0.0 mm 0.00 in0.0 mm 0.00 in0.0 mm
05:10 AM 73.4°F23.0°C 69.0°F20.6°C 86% 16.8 mph S27.0 kmh S 22.1 mph35.6 kmh 29.63 in1003.4 mb 0.00 in0.0 mm 0.00 in0.0 mm 0.00 in0.0 mm
05:05 AM 73.4°F23.0°C 69.0°F20.6°C 86% 15.2 mph S24.5 kmh S 22.1 mph35.6 kmh 29.62 in1003.0 mb 0.00 in0.0 mm 0.00 in0.0 mm 0.00 in0.0 mm
05:00 AM 73.4°F23.0°C 69.0°F20.6°C 86% 13.6 mph S21.9 kmh S 23.5 mph37.8 kmh 29.63 in1003.4 mb 0.00 in0.0 mm 0.00 in0.0 mm 0.00 in0.0 mm
04:55 AM 73.4°F23.0°C 69.0°F20.6°C 86% 14.5 mph S23.3 kmh S 23.5 mph37.8 kmh 29.63 in1003.4 mb 0.00 in0.0 mm 0.00 in0.0 mm 0.00 in0.0 mm
04:50 AM 73.4°F23.0°C 69.0°F20.6°C 86% 19.7 mph S31.7 kmh S 23.5 mph37.8 kmh 29.63 in1003.4 mb 0.00 in0.0 mm 0.00 in0.0 mm 0.00 in0.0 mm
04:45 AM 73.4°F23.0°C 69.0°F20.6°C 86% 15.2 mph S24.5 kmh S 22.1 mph35.6 kmh 29.64 in1003.7 mb 0.00 in0.0 mm 0.00 in0.0 mm 0.00 in0.0 mm
04:40 AM 73.2°F22.9°C 68.8°F20.4°C 86% 10.7 mph S17.2 kmh S 22.8 mph36.7 kmh 29.64 in1003.7 mb 0.00 in0.0 mm 0.00 in0.0 mm 0.00 in0.0 mm
04:35 AM 73.2°F22.9°C 68.8°F20.4°C 86% 12.1 mph S19.5 kmh S 25.1 mph40.4 kmh 29.64 in1003.7 mb 0.00 in0.0 mm 0.00 in0.0 mm 0.00 in0.0 mm
04:30 AM 73.2°F22.9°C 68.8°F20.4°C 86% 16.8 mph S27.0 kmh S 25.1 mph40.4 kmh 29.64 in1003.7 mb 0.00 in0.0 mm 0.00 in0.0 mm 0.00 in0.0 mm
04:25 AM 73.0°F22.8°C 68.6°F20.3°C 86% 11.4 mph S18.3 kmh S 21.3 mph34.3 kmh 29.64 in1003.7 mb 0.00 in0.0 mm 0.00 in0.0 mm 0.00 in0.0 mm
04:20 AM 72.9°F22.7°C 68.5°F20.3°C 86% 13.6 mph S21.9 kmh S 21.3 mph34.3 kmh 29.64 in1003.7 mb 0.00 in0.0 mm 0.00 in0.0 mm 0.00 in0.0 mm
04:15 AM 72.7°F22.6°C 68.3°F20.2°C 86% 13.0 mph S20.9 kmh S 25.9 mph41.7 kmh 29.64 in1003.7 mb 0.00 in0.0 mm 0.00 in0.0 mm 0.00 in0.0 mm
04:10 AM 72.7°F22.6°C 67.9°F19.9°C 85% 15.2 mph S24.5 kmh S 25.9 mph41.7 kmh 29.64 in1003.7 mb 0.00 in0.0 mm 0.00 in0.0 mm 0.00 in0.0 mm
04:05 AM 72.7°F22.6°C 67.9°F19.9°C 85% 14.5 mph S23.3 kmh S 24.4 mph39.3 kmh 29.64 in1003.7 mb 0.00 in0.0 mm 0.00 in0.0 mm 0.00 in0.0 mm
04:00 AM 72.7°F22.6°C 67.9°F19.9°C 85% 17.4 mph S28.0 kmh S 24.4 mph39.3 kmh 29.64 in1003.7 mb 0.00 in0.0 mm 0.00 in0.0 mm 0.00 in0.0 mm
03:55 AM 72.7°F22.6°C 67.9°F19.9°C 85% 13.6 mph S21.9 kmh S 24.4 mph39.3 kmh 29.65 in1004.1 mb 0.00 in0.0 mm 0.00 in0.0 mm 0.00 in0.0 mm
03:50 AM 72.5°F22.5°C 67.8°F19.9°C 85% 12.1 mph S19.5 kmh S 24.4 mph39.3 kmh 29.65 in1004.1 mb 0.00 in0.0 mm 0.00 in0.0 mm 0.00 in0.0 mm
03:45 AM 72.7°F22.6°C 67.6°F19.8°C 84% 13.0 mph S20.9 kmh S 22.1 mph35.6 kmh 29.65 in1004.1 mb 0.00 in0.0 mm 0.00 in0.0 mm 0.00 in0.0 mm
03:40 AM 72.7°F22.6°C 67.6°F19.8°C 84% 11.4 mph S18.3 kmh S 25.9 mph41.7 kmh 29.65 in1004.1 mb 0.00 in0.0 mm 0.00 in0.0 mm 0.00 in0.0 mm
03:35 AM 72.7°F22.6°C 67.6°F19.8°C 84% 12.1 mph S19.5 kmh S 25.9 mph41.7 kmh 29.65 in1004.1 mb 0.00 in0.0 mm 0.00 in0.0 mm 0.00 in0.0 mm
03:30 AM 72.7°F22.6°C 67.6°F19.8°C 84% 19.0 mph S30.6 kmh S 24.4 mph39.3 kmh 29.65 in1004.1 mb 0.00 in0.0 mm 0.00 in0.0 mm 0.00 in0.0 mm
03:25 AM 72.9°F22.7°C 67.4°F19.7°C 83% 14.5 mph S23.3 kmh S 23.5 mph37.8 kmh 29.66 in1004.4 mb 0.00 in0.0 mm 0.00 in0.0 mm 0.00 in0.0 mm
03:20 AM 72.9°F22.7°C 67.4°F19.7°C 83% 16.8 mph S27.0 kmh S 24.4 mph39.3 kmh 29.65 in1004.1 mb 0.00 in0.0 mm 0.00 in0.0 mm 0.00 in0.0 mm
03:15 AM 73.0°F22.8°C 67.6°F19.8°C 83% 14.5 mph S23.3 kmh S 25.9 mph41.7 kmh 29.65 in1004.1 mb 0.00 in0.0 mm 0.00 in0.0 mm 0.00 in0.0 mm
03:10 AM 73.0°F22.8°C 67.6°F19.8°C 83% 13.6 mph S21.9 kmh S 28.2 mph45.4 kmh 29.66 in1004.4 mb 0.00 in0.0 mm 0.00 in0.0 mm 0.00 in0.0 mm
03:05 AM 73.2°F22.9°C 67.8°F19.9°C 83% 18.3 mph S29.5 kmh S 28.2 mph45.4 kmh 29.66 in1004.4 mb 0.00 in0.0 mm 0.00 in0.0 mm 0.00 in0.0 mm
03:00 AM 73.2°F22.9°C 67.8°F19.9°C 83% 22.8 mph S36.7 kmh S 28.2 mph45.4 kmh 29.67 in1004.7 mb 0.00 in0.0 mm 0.00 in0.0 mm 0.00 in0.0 mm
02:55 AM 73.4°F23.0°C 67.6°F19.8°C 82% 13.6 mph S21.9 kmh S 25.1 mph40.4 kmh 29.67 in1004.7 mb 0.00 in0.0 mm 0.00 in0.0 mm 0.00 in0.0 mm
02:50 AM 73.2°F22.9°C 67.4°F19.7°C 82% 18.3 mph S29.5 kmh S 25.1 mph40.4 kmh 29.67 in1004.7 mb 0.00 in0.0 mm 0.00 in0.0 mm 0.00 in0.0 mm
02:45 AM 73.0°F22.8°C 67.3°F19.6°C 82% 13.0 mph S20.9 kmh S 23.5 mph37.8 kmh 29.68 in1005.1 mb 0.00 in0.0 mm 0.00 in0.0 mm 0.00 in0.0 mm
02:40 AM 72.9°F22.7°C 67.1°F19.5°C 82% 15.2 mph S24.5 kmh S 21.3 mph34.3 kmh 29.68 in1005.1 mb 0.00 in0.0 mm 0.00 in0.0 mm 0.00 in0.0 mm
02:35 AM 72.9°F22.7°C 67.1°F19.5°C 82% 13.0 mph S20.9 kmh S 27.3 mph43.9 kmh 29.68 in1005.1 mb 0.00 in0.0 mm 0.00 in0.0 mm 0.00 in0.0 mm
02:30 AM 72.9°F22.7°C 67.1°F19.5°C 82% 13.0 mph S20.9 kmh S 27.3 mph43.9 kmh 29.68 in1005.1 mb 0.00 in0.0 mm 0.00 in0.0 mm 0.00 in0.0 mm
02:25 AM 72.9°F22.7°C 67.1°F19.5°C 82% 19.0 mph S30.6 kmh S 27.3 mph43.9 kmh 29.69 in1005.4 mb 0.00 in0.0 mm 0.00 in0.0 mm 0.00 in0.0 mm
02:20 AM 72.5°F22.5°C 66.7°F19.3°C 82% 15.2 mph S24.5 kmh S 25.1 mph40.4 kmh 29.68 in1005.1 mb 0.00 in0.0 mm 0.00 in0.0 mm 0.00 in0.0 mm
02:15 AM 72.3°F22.4°C 66.6°F19.2°C 82% 18.3 mph S29.5 kmh S 25.1 mph40.4 kmh 29.69 in1005.4 mb 0.00 in0.0 mm 0.00 in0.0 mm 0.00 in0.0 mm
02:10 AM 72.3°F22.4°C 66.6°F19.2°C 82% 14.5 mph S23.3 kmh S 21.3 mph34.3 kmh 29.69 in1005.4 mb 0.00 in0.0 mm 0.00 in0.0 mm 0.00 in0.0 mm
02:05 AM 72.1°F22.3°C 66.0°F18.9°C 81% 14.5 mph S23.3 kmh S 21.3 mph34.3 kmh 29.69 in1005.4 mb 0.00 in0.0 mm 0.00 in0.0 mm 0.00 in0.0 mm
02:00 AM 72.1°F22.3°C 66.0°F18.9°C 81% 14.5 mph S23.3 kmh S 21.3 mph34.3 kmh 29.69 in1005.4 mb 0.00 in0.0 mm 0.00 in0.0 mm 0.00 in0.0 mm
01:55 AM 72.1°F22.3°C 66.4°F19.1°C 82% 13.6 mph S21.9 kmh S 22.1 mph35.6 kmh 29.69 in1005.4 mb 0.00 in0.0 mm 0.00 in0.0 mm 0.00 in0.0 mm
01:50 AM 72.0°F22.2°C 66.2°F19.0°C 82% 14.5 mph S23.3 kmh S 22.1 mph35.6 kmh 29.69 in1005.4 mb 0.00 in0.0 mm 0.00 in0.0 mm 0.00 in0.0 mm
01:45 AM 72.0°F22.2°C 66.2°F19.0°C 82% 15.2 mph S24.5 kmh S 22.1 mph35.6 kmh 29.69 in1005.4 mb 0.00 in0.0 mm 0.00 in0.0 mm 0.00 in0.0 mm
01:40 AM 72.1°F22.3°C 66.0°F18.9°C 81% 9.8 mph S15.8 kmh S 18.3 mph29.5 kmh 29.69 in1005.4 mb 0.00 in0.0 mm 0.00 in0.0 mm 0.00 in0.0 mm
01:35 AM 72.1°F22.3°C 66.0°F18.9°C 81% 10.7 mph S17.2 kmh S 16.8 mph27.0 kmh 29.70 in1005.8 mb 0.00 in0.0 mm 0.00 in0.0 mm 0.00 in0.0 mm
01:30 AM 72.0°F22.2°C 66.2°F19.0°C 82% 10.7 mph S17.2 kmh S 18.3 mph29.5 kmh 29.70 in1005.8 mb 0.00 in0.0 mm 0.00 in0.0 mm 0.00 in0.0 mm
01:25 AM 72.3°F22.4°C 66.6°F19.2°C 82% 11.4 mph S18.3 kmh S 18.3 mph29.5 kmh 29.70 in1005.8 mb 0.00 in0.0 mm 0.00 in0.0 mm 0.00 in0.0 mm
01:20 AM 72.1°F22.3°C 66.0°F18.9°C 81% 13.6 mph S21.9 kmh S 18.3 mph29.5 kmh 29.69 in1005.4 mb 0.00 in0.0 mm 0.00 in0.0 mm 0.00 in0.0 mm
01:15 AM 72.0°F22.2°C 65.8°F18.8°C 81% 13.6 mph S21.9 kmh S 18.3 mph29.5 kmh 29.69 in1005.4 mb 0.00 in0.0 mm 0.00 in0.0 mm 0.00 in0.0 mm
01:10 AM 72.1°F22.3°C 66.0°F18.9°C 81% 13.0 mph S20.9 kmh S 19.0 mph30.6 kmh 29.69 in1005.4 mb 0.00 in0.0 mm 0.00 in0.0 mm 0.00 in0.0 mm
01:05 AM 72.0°F22.2°C 65.8°F18.8°C 81% 10.7 mph S17.2 kmh S 22.1 mph35.6 kmh 29.69 in1005.4 mb 0.00 in0.0 mm 0.00 in0.0 mm 0.00 in0.0 mm
01:00 AM 71.8°F22.1°C 66.0°F18.9°C 82% 13.6 mph S21.9 kmh S 22.1 mph35.6 kmh 29.70 in1005.8 mb 0.00 in0.0 mm 0.00 in0.0 mm 0.00 in0.0 mm
12:55 AM 71.6°F22.0°C 65.8°F18.8°C 82% 12.1 mph S19.5 kmh S 17.4 mph28.0 kmh 29.70 in1005.8 mb 0.00 in0.0 mm 0.00 in0.0 mm 0.00 in0.0 mm
12:50 AM 71.4°F21.9°C 65.7°F18.7°C 82% 11.4 mph S18.3 kmh S 20.6 mph33.2 kmh 29.70 in1005.8 mb 0.00 in0.0 mm 0.00 in0.0 mm 0.00 in0.0 mm
12:45 AM 71.2°F21.8°C 65.5°F18.6°C 82% 15.2 mph S24.5 kmh S 20.6 mph33.2 kmh 29.70 in1005.8 mb 0.00 in0.0 mm 0.00 in0.0 mm 0.00 in0.0 mm
12:40 AM 71.1°F21.7°C 65.0°F18.3°C 81% 10.7 mph S17.2 kmh S 18.3 mph29.5 kmh 29.70 in1005.8 mb 0.00 in0.0 mm 0.00 in0.0 mm 0.00 in0.0 mm
12:35 AM 70.9°F21.6°C 65.1°F18.4°C 82% 13.0 mph S20.9 kmh S 18.3 mph29.5 kmh 29.70 in1005.8 mb 0.00 in0.0 mm 0.00 in0.0 mm 0.00 in0.0 mm
12:30 AM 70.3°F21.3°C 64.3°F17.9°C 81% 9.8 mph S15.8 kmh S 15.9 mph25.6 kmh 29.70 in1005.8 mb 0.00 in0.0 mm 0.00 in0.0 mm 0.00 in0.0 mm
12:25 AM 70.0°F21.1°C 63.6°F17.6°C 80% 9.2 mph SSE14.8 kmh SSE 15.9 mph25.6 kmh 29.70 in1005.8 mb 0.00 in0.0 mm 0.00 in0.0 mm 0.00 in0.0 mm
12:20 AM 69.6°F20.9°C 62.8°F17.1°C 79% 5.4 mph SSE8.7 kmh SSE 12.1 mph19.5 kmh 29.70 in1005.8 mb 0.00 in0.0 mm 0.00 in0.0 mm 0.00 in0.0 mm
12:15 AM 69.6°F20.9°C 62.8°F17.1°C 79% 5.4 mph SSE8.7 kmh SSE 12.1 mph19.5 kmh 29.70 in1005.8 mb 0.00 in0.0 mm 0.00 in0.0 mm 0.00 in0.0 mm
12:10 AM 69.4°F20.8°C 62.7°F17.1°C 79% 3.8 mph SE6.1 kmh SE 8.3 mph13.4 kmh 29.70 in1005.8 mb 0.00 in0.0 mm 0.00 in0.0 mm 0.00 in0.0 mm
12:05 AM 69.4°F20.8°C 62.7°F17.1°C 79% 3.1 mph SE5.0 kmh SE 8.3 mph13.4 kmh 29.71 in1006.1 mb 0.00 in0.0 mm 0.00 in0.0 mm 0.00 in0.0 mm
12:00 AM 69.4°F20.8°C 62.7°F17.1°C 79% 3.1 mph SE5.0 kmh SE 6.0 mph9.7 kmh 29.71 in1006.1 mb 0.00 in0.0 mm 0.00 in0.0 mm 0.00 in0.0 mm